Time;durP1;ratioP1;P1;durP2;ratioP2;P2;SDS_P1;SDS_P2;PMS_P1;PMS_P2;Temp;Humidity;BMP_temperature;BMP_pressure;BME280_temperature;BME280_humidity;BME280_pressure;Samples;Min_cycle;Max_cycle;Signal;HPM_P1;HPM_P2
2022/11/10 00:02:30;;;;;;;0.30;0.30;;;11.20;99.90;11.60;101534.00;;;;5030368;28;20210;-74
2022/11/10 00:05:09;;;;;;;0.40;0.40;;;11.30;99.90;11.70;101539.00;;;;5087136;28;20206;-75
2022/11/10 00:08:23;;;;;;;2.00;0.90;;;11.20;99.90;11.20;101549.00;;;;5079011;28;20594;-75
2022/11/10 00:11:12;;;;;;;2.10;2.00;;;11.10;99.90;11.90;101537.00;;;;5094441;28;20179;-75
2022/11/10 00:17:16;;;;;;;0.37;0.37;;;11.40;99.90;11.80;101507.00;;;;5039894;28;20638;-75
2022/11/10 00:20:11;;;;;;;0.90;0.90;;;11.30;99.90;11.50;101556.00;;;;5066840;28;20184;-75
2022/11/10 00:22:45;;;;;;;0.40;0.40;;;11.20;99.90;12.10;101530.00;;;;5036152;28;20698;-74
2022/11/10 00:25:40;;;;;;;1.43;1.33;;;11.40;99.90;12.00;101556.00;;;;5072358;28;20191;-75
2022/11/10 00:28:16;;;;;;;0.30;0.30;;;11.50;99.90;11.90;101563.00;;;;5091900;28;20212;-75
2022/11/10 00:31:06;;;;;;;0.30;0.30;;;11.30;99.90;11.80;101527.00;;;;5081064;28;20192;-75
2022/11/10 00:34:09;;;;;;;0.30;0.30;;;11.30;99.90;11.50;101556.00;;;;4991020;28;20759;-74
2022/11/10 00:36:56;;;;;;;0.30;0.30;;;11.30;99.90;11.50;101545.00;;;;5090098;28;20241;-75
2022/11/10 00:40:12;;;;;;;0.30;0.30;;;11.20;99.90;11.50;101571.00;;;;5115222;28;20285;-75
2022/11/10 00:43:09;;;;;;;0.40;0.40;;;11.10;99.90;11.80;101506.00;;;;5094269;28;20250;-75
2022/11/10 00:46:07;;;;;;;0.40;0.40;;;11.20;99.90;11.70;101562.00;;;;5069159;28;20198;-75
2022/11/10 00:48:58;;;;;;;0.40;0.40;;;11.30;99.90;11.10;101585.00;;;;5081147;28;20650;-74
2022/11/10 00:51:57;;;;;;;0.40;0.40;;;11.10;99.90;11.60;101591.00;;;;5056672;28;20220;-75
2022/11/10 00:54:55;;;;;;;0.30;0.30;;;11.10;99.90;11.50;101584.00;;;;5078265;28;20193;-74
2022/11/10 00:57:46;;;;;;;0.40;0.40;;;11.10;99.90;12.00;101580.00;;;;5068989;28;20196;-75
2022/11/10 01:00:38;;;;;;;0.40;0.40;;;11.20;99.90;11.60;101571.00;;;;5094700;28;20646;-75
2022/11/10 01:03:34;;;;;;;0.60;0.60;;;11.10;99.90;11.60;101572.00;;;;5039683;28;20250;-75
2022/11/10 01:06:20;;;;;;;1.80;0.50;;;11.10;99.90;11.40;101578.00;;;;5066206;28;20220;-75
2022/11/10 01:09:06;;;;;;;0.30;0.30;;;11.10;99.90;11.30;101583.00;;;;5088612;28;20188;-75
2022/11/10 01:12:01;;;;;;;0.30;0.30;;;11.10;99.90;11.40;101516.00;;;;5083928;28;20191;-75
2022/11/10 01:14:43;;;;;;;0.33;0.33;;;11.00;99.90;11.20;101521.00;;;;5108320;28;20204;-75
2022/11/10 01:17:23;;;;;;;0.40;0.40;;;11.00;99.90;11.80;101575.00;;;;5076224;28;20268;-75
2022/11/10 01:20:03;;;;;;;0.60;0.60;;;11.10;99.90;11.30;101579.00;;;;5079697;28;20186;-75
2022/11/10 01:22:57;;;;;;;0.30;0.30;;;11.10;99.90;11.20;101598.00;;;;5079310;28;20203;-75
2022/11/10 01:25:57;;;;;;;0.30;0.30;;;11.00;99.90;11.00;101579.00;;;;5063388;28;20176;-75
2022/11/10 01:28:39;;;;;;;0.30;0.30;;;10.90;99.90;11.00;101595.00;;;;5074186;28;20550;-75
2022/11/10 01:31:32;;;;;;;0.40;0.40;;;10.80;99.90;11.10;101621.00;;;;5077091;28;20225;-75
2022/11/10 01:34:09;;;;;;;0.30;0.30;;;10.80;99.90;11.30;101587.00;;;;5089525;28;20628;-75
2022/11/10 01:37:03;;;;;;;0.30;0.30;;;10.90;99.90;11.10;101621.00;;;;5078679;28;20196;-75
2022/11/10 01:39:55;;;;;;;0.30;0.30;;;10.80;99.90;11.30;101626.00;;;;5068682;28;20259;-75
2022/11/10 01:42:58;;;;;;;0.30;0.30;;;10.90;99.90;11.10;101619.00;;;;5069022;28;20207;-75
2022/11/10 01:46:00;;;;;;;2.17;2.10;;;10.90;99.90;11.10;101627.00;;;;5063398;28;20681;-75
2022/11/10 01:49:21;;;;;;;0.40;0.40;;;10.90;99.90;11.20;101589.00;;;;5111820;28;20694;-75
2022/11/10 01:52:06;;;;;;;0.30;0.30;;;10.80;99.90;11.30;101551.00;;;;5106876;28;20191;-75
2022/11/10 01:54:47;;;;;;;0.30;0.30;;;10.80;99.90;11.10;101604.00;;;;5114079;28;20633;-75
2022/11/10 01:57:27;;;;;;;0.30;0.30;;;10.70;99.90;10.90;101586.00;;;;5078372;28;20192;-75
2022/11/10 02:00:05;;;;;;;0.40;0.40;;;10.70;99.90;10.80;101609.00;;;;5114066;28;20186;-75
2022/11/10 02:03:00;;;;;;;0.30;0.30;;;10.60;99.90;11.00;101631.00;;;;5095462;28;20225;-75
2022/11/10 02:05:41;;;;;;;0.37;0.37;;;10.60;99.90;10.90;101625.00;;;;5074128;28;20187;-75
2022/11/10 02:08:33;;;;;;;0.30;0.30;;;10.60;99.90;11.00;101612.00;;;;5078715;28;20237;-76
2022/11/10 02:11:22;;;;;;;0.37;0.37;;;10.60;99.90;11.00;101633.00;;;;5085967;28;20627;-76
2022/11/10 02:14:04;;;;;;;0.70;0.70;;;10.60;99.90;10.60;101638.00;;;;5083654;28;20192;-75
2022/11/10 02:16:39;;;;;;;0.30;0.30;;;10.50;99.90;11.10;101637.00;;;;5084238;28;20226;-75
2022/11/10 02:19:24;;;;;;;0.40;0.40;;;10.60;99.90;10.50;101644.00;;;;5067884;28;20178;-75
2022/11/10 02:22:02;;;;;;;0.37;0.37;;;10.50;99.90;10.70;101633.00;;;;5087461;28;20204;-75
2022/11/10 02:24:54;;;;;;;1.00;0.57;;;10.40;99.90;10.50;101638.00;;;;5089362;28;20188;-75
2022/11/10 02:27:45;;;;;;;0.30;0.30;;;10.40;99.90;10.70;101639.00;;;;5073629;28;20199;-75
2022/11/10 02:30:28;;;;;;;0.50;0.50;;;10.40;99.90;10.50;101623.00;;;;5092768;28;20366;-75
2022/11/10 02:33:16;;;;;;;0.37;0.37;;;10.30;99.90;10.30;101654.00;;;;5077447;28;20260;-75
2022/11/10 02:35:56;;;;;;;0.30;0.30;;;10.30;99.90;10.40;101645.00;;;;5078633;28;20190;-75
2022/11/10 02:38:32;;;;;;;0.33;0.33;;;10.30;99.90;10.20;101654.00;;;;5095507;28;20183;-75
2022/11/10 02:41:26;;;;;;;0.30;0.30;;;10.20;99.90;10.50;101636.00;;;;5079386;28;20194;-75
2022/11/10 02:44:01;;;;;;;0.30;0.30;;;10.20;99.90;10.20;101647.00;;;;5078392;28;20713;-75
2022/11/10 02:46:53;;;;;;;0.30;0.30;;;10.20;99.90;10.20;101640.00;;;;5087014;28;20618;-74
2022/11/10 02:49:33;;;;;;;0.30;0.30;;;10.20;99.90;10.20;101652.00;;;;5066562;28;20589;-74
2022/11/10 02:52:21;;;;;;;0.83;0.83;;;10.10;99.90;10.50;101647.00;;;;5077771;28;20184;-74
2022/11/10 02:55:19;;;;;;;0.40;0.40;;;10.20;99.90;10.40;101623.00;;;;5078913;28;20671;-74
2022/11/10 02:58:14;;;;;;;0.40;0.40;;;10.30;99.90;10.20;101670.00;;;;5087494;28;20304;-74
2022/11/10 03:01:05;;;;;;;0.30;0.30;;;10.10;99.90;10.20;101633.00;;;;5102031;28;20271;-74
2022/11/10 03:04:04;;;;;;;0.30;0.30;;;10.10;99.90;10.20;101700.00;;;;5095574;28;20200;-74
2022/11/10 03:07:11;;;;;;;0.30;0.30;;;10.10;99.90;10.70;101691.00;;;;5077792;28;20196;-75
2022/11/10 03:10:00;;;;;;;0.30;0.30;;;10.30;99.90;10.40;101689.00;;;;5071375;28;20527;-74
2022/11/10 03:12:55;;;;;;;0.30;0.30;;;10.20;99.90;10.40;101711.00;;;;4997336;28;20305;-74
2022/11/10 03:15:41;;;;;;;0.30;0.30;;;10.20;99.90;10.70;101701.00;;;;5024341;28;20282;-74
2022/11/10 03:18:23;;;;;;;0.30;0.30;;;10.30;99.90;10.60;101704.00;;;;4996672;28;20195;-74
2022/11/10 03:21:17;;;;;;;0.43;0.43;;;10.30;99.90;10.60;101708.00;;;;5000312;28;20676;-74
2022/11/10 03:23:51;;;;;;;0.50;0.50;;;10.30;99.90;10.60;101720.00;;;;4989266;28;20189;-74
2022/11/10 03:26:30;;;;;;;0.30;0.30;;;10.30;99.90;11.10;101723.00;;;;5017464;28;20195;-74
2022/11/10 03:29:21;;;;;;;0.30;0.30;;;10.50;99.90;10.80;101700.00;;;;5000107;28;20214;-74
2022/11/10 03:32:02;;;;;;;0.30;0.30;;;10.50;99.90;10.70;101715.00;;;;4987519;28;20220;-74
2022/11/10 03:34:44;;;;;;;0.97;0.97;;;10.50;99.90;10.60;101710.00;;;;5001165;28;20200;-74
2022/11/10 03:37:45;;;;;;;1.00;0.97;;;10.50;99.90;10.70;101718.00;;;;5017015;28;20198;-74
2022/11/10 03:40:37;;;;;;;0.30;0.30;;;10.50;99.90;10.50;101729.00;;;;5015125;28;20180;-73
2022/11/10 03:43:35;;;;;;;0.30;0.30;;;10.40;99.90;10.70;101746.00;;;;4918326;29;20604;-73
2022/11/10 03:46:24;;;;;;;0.40;0.40;;;10.50;99.90;10.80;101736.00;;;;4936462;29;20184;-74
2022/11/10 03:49:05;;;;;;;0.40;0.40;;;10.60;99.90;10.90;101727.00;;;;5020230;28;20607;-74
2022/11/10 03:51:48;;;;;;;0.30;0.30;;;10.50;99.90;10.80;101686.00;;;;5098035;28;20190;-74
2022/11/10 03:54:30;;;;;;;0.40;0.40;;;10.60;99.90;10.70;101751.00;;;;5110777;28;20190;-75
2022/11/10 03:57:24;;;;;;;0.30;0.30;;;10.50;99.90;10.70;101739.00;;;;5096936;28;20252;-75
2022/11/10 04:00:06;;;;;;;0.30;0.30;;;10.50;99.90;10.90;101694.00;;;;5098547;28;20183;-74
2022/11/10 04:02:47;;;;;;;0.30;0.30;;;10.50;99.90;10.60;101704.00;;;;5096759;28;20211;-74
2022/11/10 04:08:59;;;;;;;0.30;0.30;;;10.40;99.90;10.50;101770.00;;;;5100396;28;20726;-74
2022/11/10 04:18:24;;;;;;;0.30;0.30;;;10.30;99.90;10.30;101767.00;;;;5100441;28;20329;-74
2022/11/10 04:21:25;;;;;;;0.30;0.30;;;10.30;99.90;10.30;101782.00;;;;5087528;28;20695;-74
2022/11/10 04:24:10;;;;;;;0.40;0.40;;;10.20;99.90;10.40;101793.00;;;;5077353;28;20180;-74
2022/11/10 04:26:47;;;;;;;0.30;0.30;;;10.20;99.90;10.60;101798.00;;;;5067154;28;20269;-74
2022/11/10 04:29:34;;;;;;;0.30;0.30;;;10.30;99.90;10.70;101805.00;;;;5113311;28;20221;-74
2022/11/10 04:32:28;;;;;;;0.30;0.30;;;10.40;99.90;10.50;101786.00;;;;5069586;28;20202;-74
2022/11/10 04:35:20;;;;;;;1.70;0.77;;;10.40;99.90;10.50;101799.00;;;;5055634;28;20188;-73
2022/11/10 04:38:08;;;;;;;0.30;0.30;;;10.30;99.90;10.60;101808.00;;;;5068886;28;20204;-75
2022/11/10 04:40:53;;;;;;;0.30;0.30;;;10.30;99.90;10.50;101800.00;;;;5076940;28;20270;-75
2022/11/10 04:43:30;;;;;;;0.30;0.30;;;10.30;99.90;10.90;101808.00;;;;5079960;28;20215;-75
2022/11/10 04:46:22;;;;;;;0.30;0.30;;;10.30;99.90;10.60;101813.00;;;;5076433;28;20191;-75
2022/11/10 04:49:04;;;;;;;0.30;0.30;;;10.30;99.90;10.60;101809.00;;;;5082601;28;20195;-75
2022/11/10 04:51:47;;;;;;;0.30;0.30;;;10.30;99.90;10.60;101796.00;;;;5089461;28;20220;-75
2022/11/10 04:54:18;;;;;;;0.30;0.30;;;10.30;99.90;10.30;101680.00;;;;5074636;28;20198;-75
2022/11/10 04:57:10;;;;;;;0.30;0.30;;;10.20;99.90;10.40;101813.00;;;;5095557;28;20202;-77
2022/11/10 04:59:58;;;;;;;0.30;0.30;;;10.30;99.90;10.30;101807.00;;;;5058872;28;20245;-75
2022/11/10 05:02:24;;;;;;;0.40;0.40;;;10.20;99.90;10.40;101802.00;;;;5070604;28;20231;-75
2022/11/10 05:04:50;;;;;;;0.30;0.30;;;10.20;99.90;10.20;101809.00;;;;5114771;28;20190;-75
2022/11/10 05:07:18;;;;;;;0.30;0.30;;;10.10;99.90;10.40;101833.00;;;;5079875;28;20202;-75
2022/11/10 05:09:47;;;;;;;0.30;0.30;;;10.20;99.90;10.30;101758.00;;;;5093575;28;20177;-75
2022/11/10 05:12:12;;;;;;;0.30;0.30;;;10.20;99.90;10.40;101824.00;;;;5114539;28;20188;-75
2022/11/10 05:14:44;;;;;;;0.23;0.23;;;10.10;99.90;10.40;101827.00;;;;5094115;28;20189;-75
2022/11/10 05:17:12;;;;;;;0.30;0.30;;;10.20;99.90;10.30;101828.00;;;;5092689;28;20184;-75
2022/11/10 05:19:38;;;;;;;0.30;0.30;;;10.10;99.90;10.10;101824.00;;;;5078985;28;20192;-75
2022/11/10 05:22:06;;;;;;;0.33;0.33;;;10.10;99.90;10.00;101833.00;;;;5089859;28;20700;-75
2022/11/10 05:24:32;;;;;;;0.20;0.20;;;10.00;99.90;10.00;101842.00;;;;5092611;28;20707;-75
2022/11/10 05:26:58;;;;;;;0.30;0.30;;;9.90;99.90;10.20;101821.00;;;;5076787;28;20185;-74
2022/11/10 05:29:27;;;;;;;0.30;0.30;;;10.00;99.90;10.20;101763.00;;;;5088544;28;20187;-74
2022/11/10 05:31:53;;;;;;;0.90;0.90;;;10.00;99.90;10.40;101826.00;;;;5077525;28;20208;-74
2022/11/10 05:34:19;;;;;;;0.30;0.30;;;10.00;99.90;10.10;101822.00;;;;5078875;28;20226;-74
2022/11/10 05:36:45;;;;;;;0.87;0.87;;;10.00;99.90;10.10;101822.00;;;;5095846;28;20190;-75
2022/11/10 05:39:11;;;;;;;0.30;0.30;;;9.90;99.90;10.00;101821.00;;;;5105120;28;20182;-75
2022/11/10 05:41:37;;;;;;;0.30;0.30;;;9.90;99.90;10.10;101838.00;;;;5076998;28;20200;-75
2022/11/10 05:44:12;;;;;;;0.57;0.50;;;9.80;99.90;9.90;101835.00;;;;5079411;28;20176;-75
2022/11/10 05:46:38;;;;;;;0.20;0.20;;;9.80;99.90;9.80;101833.00;;;;5095567;28;20191;-74
2022/11/10 05:49:09;;;;;;;0.20;0.20;;;9.80;99.90;10.20;101807.00;;;;5095583;28;20183;-74
2022/11/10 05:51:37;;;;;;;0.23;0.23;;;9.80;99.90;10.10;101856.00;;;;5081398;28;20281;-74
2022/11/10 05:54:03;;;;;;;3.50;0.90;;;9.80;99.90;9.90;101864.00;;;;5082038;28;20544;-74
2022/11/10 05:56:29;;;;;;;0.40;0.40;;;9.80;99.90;9.80;101847.00;;;;5078598;28;20178;-75
2022/11/10 05:58:55;;;;;;;0.40;0.40;;;9.70;99.90;9.80;101861.00;;;;5085898;28;20441;-74
2022/11/10 06:01:27;;;;;;;0.40;0.40;;;9.60;99.90;9.50;101858.00;;;;5082892;28;20222;-74
2022/11/10 06:03:55;;;;;;;0.30;0.30;;;9.60;99.90;9.70;101849.00;;;;5096147;28;20180;-74
2022/11/10 06:06:21;;;;;;;0.30;0.30;;;9.60;99.90;9.90;101869.00;;;;5094525;28;20189;-74
2022/11/10 06:08:47;;;;;;;0.30;0.30;;;9.60;99.90;9.90;101881.00;;;;5095690;28;20180;-75
2022/11/10 06:11:17;;;;;;;0.30;0.30;;;9.60;99.90;10.00;101888.00;;;;5078612;28;20200;-75
2022/11/10 06:13:46;;;;;;;0.30;0.30;;;9.60;99.90;9.70;101881.00;;;;5079100;28;20587;-74
2022/11/10 06:16:14;;;;;;;0.40;0.40;;;9.60;99.90;9.60;101882.00;;;;5088210;28;20180;-75
2022/11/10 06:18:40;;;;;;;0.30;0.30;;;9.60;99.90;9.50;101888.00;;;;5082059;28;20220;-74
2022/11/10 06:21:09;;;;;;;0.67;0.60;;;9.60;99.90;9.70;101888.00;;;;5089633;28;20209;-75
2022/11/10 06:23:38;;;;;;;0.40;0.40;;;9.50;99.90;9.50;101897.00;;;;5079640;28;20251;-75
2022/11/10 06:26:04;;;;;;;0.40;0.40;;;9.50;99.90;9.50;101897.00;;;;5084378;28;20649;-75
2022/11/10 06:28:33;;;;;;;0.40;0.40;;;9.40;99.90;9.50;101898.00;;;;5088624;28;20222;-74
2022/11/10 06:31:07;;;;;;;0.30;0.30;;;9.40;99.90;9.50;101908.00;;;;5094673;28;20231;-74
2022/11/10 06:33:33;;;;;;;0.47;0.47;;;9.40;99.90;9.40;101906.00;;;;5095096;28;20223;-74
2022/11/10 06:36:05;;;;;;;0.90;0.83;;;9.40;99.90;9.40;101896.00;;;;5113623;28;20214;-74
2022/11/10 06:38:31;;;;;;;0.33;0.33;;;9.40;99.90;9.80;101908.00;;;;5095393;28;20190;-74
2022/11/10 06:41:00;;;;;;;0.30;0.30;;;9.40;99.90;9.60;101911.00;;;;5095167;28;20263;-74
2022/11/10 06:43:26;;;;;;;0.20;0.20;;;9.40;99.90;9.40;101863.00;;;;5078371;28;20239;-74
2022/11/10 06:45:52;;;;;;;0.30;0.30;;;9.40;99.90;9.50;101869.00;;;;5091201;28;20179;-75
2022/11/10 06:48:18;;;;;;;0.30;0.30;;;9.40;99.90;9.40;101914.00;;;;5084920;28;20181;-76
2022/11/10 06:50:53;;;;;;;0.50;0.50;;;9.30;99.90;9.50;101938.00;;;;5088565;28;20272;-76
2022/11/10 06:53:22;;;;;;;0.40;0.40;;;9.30;99.90;9.40;101936.00;;;;5095123;28;20203;-76
2022/11/10 06:55:51;;;;;;;0.30;0.30;;;9.30;99.90;9.60;101955.00;;;;5081746;28;20189;-76
2022/11/10 06:58:28;;;;;;;0.30;0.30;;;9.40;99.90;9.40;101934.00;;;;5079435;28;20283;-75
2022/11/10 07:01:14;;;;;;;0.30;0.30;;;9.30;99.90;9.50;101950.00;;;;5082034;28;20186;-75
2022/11/10 07:03:43;;;;;;;0.40;0.40;;;9.40;99.90;9.50;101912.00;;;;5077804;28;20255;-75
2022/11/10 07:06:15;;;;;;;1.70;1.07;;;9.30;99.90;9.20;101936.00;;;;5098570;28;20188;-74
2022/11/10 07:08:47;;;;;;;0.30;0.30;;;9.30;99.90;9.30;101948.00;;;;5086248;28;20246;-75
2022/11/10 07:11:42;;;;;;;0.30;0.30;;;9.30;99.90;9.50;101965.00;;;;5096846;28;20187;-74
2022/11/10 07:14:09;;;;;;;0.30;0.30;;;9.30;99.90;9.50;101968.00;;;;5098904;28;20277;-74
2022/11/10 07:16:35;;;;;;;0.40;0.40;;;9.40;99.90;9.50;101947.00;;;;5077356;28;20197;-74
2022/11/10 07:19:10;;;;;;;0.30;0.30;;;9.40;99.90;9.50;101957.00;;;;5098693;28;20173;-75
2022/11/10 07:21:54;;;;;;;1.60;1.03;;;9.40;99.90;9.30;101975.00;;;;5081517;28;20200;-74
2022/11/10 07:24:20;;;;;;;0.30;0.30;;;9.30;99.90;9.40;101984.00;;;;5098570;28;20190;-75
2022/11/10 07:26:51;;;;;;;0.30;0.30;;;9.40;99.90;9.50;101921.00;;;;5098827;28;20176;-75
2022/11/10 07:29:19;;;;;;;2.43;1.27;;;9.40;99.90;9.50;101994.00;;;;5074201;28;20194;-75
2022/11/10 07:31:50;;;;;;;0.30;0.30;;;9.40;99.90;9.70;101973.00;;;;5081460;28;20203;-75
2022/11/10 07:34:19;;;;;;;0.30;0.30;;;9.60;99.90;9.60;101931.00;;;;5072101;28;20197;-75
2022/11/10 07:36:45;;;;;;;0.40;0.40;;;9.50;99.90;9.60;101994.00;;;;5081023;28;20600;-75
2022/11/10 07:39:12;;;;;;;3.20;1.90;;;9.50;99.90;9.50;102003.00;;;;5073318;28;20218;-75
2022/11/10 07:41:38;;;;;;;0.37;0.37;;;9.50;99.90;9.80;101998.00;;;;5080494;28;20219;-75
2022/11/10 07:44:04;;;;;;;0.37;0.37;;;9.60;99.90;9.80;101944.00;;;;5087425;28;20282;-75
2022/11/10 07:46:30;;;;;;;0.30;0.30;;;9.60;99.90;9.80;101978.00;;;;5075836;28;20194;-75
2022/11/10 07:48:59;;;;;;;0.50;0.50;;;9.60;99.90;9.90;102011.00;;;;5098199;28;20182;-75
2022/11/10 07:52:02;;;;;;;0.30;0.30;;;9.70;99.90;9.70;101996.00;;;;5087541;28;20641;-75
2022/11/10 07:54:33;;;;;;;0.30;0.30;;;9.70;99.90;9.80;101986.00;;;;5084993;28;20207;-75
2022/11/10 07:57:22;;;;;;;0.70;0.70;;;9.70;99.90;9.80;102002.00;;;;5081275;28;20529;-75
2022/11/10 07:59:53;;;;;;;0.30;0.30;;;9.80;99.90;10.10;101994.00;;;;5097040;28;20210;-74
2022/11/10 08:02:25;;;;;;;0.43;0.43;;;9.80;99.90;10.10;102013.00;;;;5081139;28;20251;-75
2022/11/10 08:05:00;;;;;;;0.83;0.70;;;9.90;99.90;10.00;102011.00;;;;5097123;28;20263;-74
2022/11/10 08:07:43;;;;;;;1.93;0.80;;;9.90;99.90;10.10;102004.00;;;;5096755;28;20190;-75
2022/11/10 08:10:12;;;;;;;1.20;1.13;;;10.00;99.90;9.80;102019.00;;;;5080344;28;20701;-75
2022/11/10 08:12:40;;;;;;;0.30;0.30;;;10.00;99.90;10.00;102030.00;;;;5097622;28;20221;-75
2022/11/10 08:15:12;;;;;;;0.50;0.50;;;10.00;99.90;10.30;102046.00;;;;5080854;28;20550;-75
2022/11/10 08:17:41;;;;;;;0.67;0.67;;;10.10;99.90;10.50;102036.00;;;;5072880;28;20212;-75
2022/11/10 08:20:08;;;;;;;0.40;0.40;;;10.30;99.90;10.40;102047.00;;;;5097890;28;20187;-75
2022/11/10 08:22:34;;;;;;;0.30;0.30;;;10.40;99.90;10.30;102033.00;;;;5080441;28;20719;-75
2022/11/10 08:24:59;;;;;;;0.67;0.67;;;10.30;99.90;10.70;102035.00;;;;5097701;28;20192;-74
2022/11/10 08:27:27;;;;;;;0.30;0.30;;;10.50;99.90;10.70;101972.00;;;;5092110;28;20182;-75
2022/11/10 08:29:52;;;;;;;0.37;0.37;;;10.50;99.90;10.30;102033.00;;;;5080629;28;20600;-75
2022/11/10 08:32:21;;;;;;;0.30;0.30;;;10.50;99.90;10.60;102023.00;;;;5080220;28;20203;-75
2022/11/10 08:34:49;;;;;;;0.40;0.40;;;10.50;99.90;10.50;102046.00;;;;5080542;28;20183;-77
2022/11/10 08:37:15;;;;;;;0.33;0.33;;;10.60;99.90;11.00;102030.00;;;;5084881;28;20180;-79
2022/11/10 08:39:43;;;;;;;0.40;0.40;;;10.80;99.90;10.80;102010.00;;;;5088001;28;20197;-78
2022/11/10 08:42:24;;;;;;;0.40;0.40;;;10.90;99.90;11.60;102007.00;;;;5089146;28;20209;-72
2022/11/10 08:44:56;;;;;;;0.47;0.43;;;11.10;99.90;11.30;102057.00;;;;5093153;28;20176;-75
2022/11/10 08:47:49;;;;;;;0.33;0.33;;;11.20;99.90;11.30;102048.00;;;;5080378;28;20184;-75
2022/11/10 08:50:15;;;;;;;0.30;0.30;;;11.30;99.90;11.70;102059.00;;;;5080322;28;20189;-75
2022/11/10 08:52:41;;;;;;;0.43;0.43;;;11.40;99.90;12.20;102070.00;;;;5093319;28;20177;-75
2022/11/10 08:55:18;;;;;;;0.40;0.40;;;11.80;99.90;12.30;102039.00;;;;5096218;28;20182;-74
2022/11/10 08:57:45;;;;;;;1.13;1.13;;;12.00;99.90;12.90;102050.00;;;;5077293;28;20185;-75
2022/11/10 09:00:14;;;;;;;0.37;0.37;;;12.30;99.90;13.10;102074.00;;;;5078381;28;20558;-75
2022/11/10 09:02:39;;;;;;;0.30;0.30;;;12.70;99.90;12.80;102072.00;;;;5076201;28;20215;-64
2022/11/10 09:05:09;;;;;;;0.30;0.30;;;12.60;99.90;13.90;102060.00;;;;5113940;28;20529;-77
2022/11/10 09:07:46;;;;;;;0.30;0.30;;;13.10;99.90;12.90;102062.00;;;;5079686;28;20567;-76
2022/11/10 09:10:15;;;;;;;0.33;0.33;;;12.90;99.90;13.70;102094.00;;;;5096441;28;20217;-76
2022/11/10 09:12:42;;;;;;;0.30;0.30;;;13.20;99.90;13.30;102078.00;;;;5079809;28;20520;-76
2022/11/10 09:15:36;;;;;;;1.20;1.13;;;13.10;99.90;13.60;102082.00;;;;5095304;28;20185;-76
2022/11/10 09:18:06;;;;;;;0.20;0.20;;;13.30;99.90;12.90;102087.00;;;;5076001;28;20678;-74
2022/11/10 09:20:44;;;;;;;0.60;0.60;;;13.30;99.90;13.60;102043.00;;;;5079119;28;20191;-75
2022/11/10 09:23:17;;;;;;;1.80;1.70;;;13.30;99.90;12.90;102088.00;;;;5092173;28;20676;-75
2022/11/10 09:25:50;;;;;;;2.63;2.40;;;13.10;99.90;13.00;102091.00;;;;5092492;28;20185;-74
2022/11/10 09:28:17;;;;;;;0.60;0.60;;;13.10;99.90;13.30;102085.00;;;;5096639;28;20192;-75
2022/11/10 09:30:56;;;;;;;1.50;1.07;;;13.20;99.90;13.40;102081.00;;;;5079156;28;20189;-75
2022/11/10 09:33:22;;;;;;;0.70;0.70;;;13.30;99.90;13.30;102033.00;;;;5079928;28;20606;-75
2022/11/10 09:35:47;;;;;;;0.20;0.20;;;13.30;99.90;14.10;102062.00;;;;5093818;28;20211;-75
2022/11/10 09:38:13;;;;;;;0.33;0.33;;;13.60;99.90;13.70;102054.00;;;;5078988;28;20235;-75
2022/11/10 09:41:06;;;;;;;0.40;0.40;;;13.60;99.90;13.50;102057.00;;;;5081880;28;20196;-75
2022/11/10 09:44:02;;;;;;;0.30;0.30;;;13.50;99.90;13.90;101994.00;;;;5078617;28;20211;-75
2022/11/10 09:47:12;;;;;;;0.30;0.30;;;13.90;99.90;13.40;102068.00;;;;5095258;28;20186;-75
2022/11/10 09:49:50;;;;;;;0.70;0.70;;;13.50;99.90;12.80;102063.00;;;;5096078;28;20241;-75
2022/11/10 09:52:22;;;;;;;1.23;1.23;;;13.30;99.90;13.30;102071.00;;;;5091986;28;20629;-75
2022/11/10 09:55:02;;;;;;;0.40;0.40;;;13.20;99.90;13.20;102059.00;;;;5077907;28;20186;-75
2022/11/10 09:57:36;;;;;;;1.77;1.70;;;13.30;99.90;13.20;102058.00;;;;5075772;28;20665;-75
2022/11/10 10:00:04;;;;;;;3.63;1.33;;;13.10;99.90;13.70;102055.00;;;;5078457;28;20377;-75
2022/11/10 10:02:44;;;;;;;2.30;1.13;;;13.30;99.90;13.60;102081.00;;;;5078238;28;20702;-75
2022/11/10 10:05:56;;;;;;;0.30;0.30;;;13.50;99.90;14.10;102083.00;;;;5080952;28;20243;-75
2022/11/10 10:08:39;;;;;;;0.37;0.37;;;13.70;99.90;14.60;102105.00;;;;5092216;28;20195;-75
2022/11/10 10:11:43;;;;;;;0.30;0.30;;;13.80;99.90;13.60;102113.00;;;;5092574;28;20180;-75
2022/11/10 10:14:27;;;;;;;0.20;0.20;;;13.70;99.90;14.50;102117.00;;;;5071063;28;20196;-75
2022/11/10 10:17:25;;;;;;;6.23;3.40;;;14.10;99.90;14.10;102116.00;;;;5111245;28;20180;-75
2022/11/10 10:20:12;;;;;;;0.20;0.20;;;13.80;99.90;14.80;102121.00;;;;5078293;28;20255;-76
2022/11/10 10:33:24;;;;;;;0.60;0.60;;;13.80;99.90;13.60;102145.00;;;;5070209;28;20550;-75
2022/11/10 10:35:50;;;;;;;0.20;0.20;;;13.80;99.90;15.50;102127.00;;;;5065895;28;20224;-75
2022/11/10 10:38:41;;;;;;;0.30;0.30;;;14.60;99.90;14.50;102111.00;;;;5061118;28;20190;-75
2022/11/10 10:41:30;;;;;;;0.37;0.37;;;14.50;99.90;15.50;102182.00;;;;5031653;28;20640;-75
2022/11/10 10:44:09;;;;;;;0.20;0.20;;;15.00;99.90;14.90;102120.00;;;;5065235;28;20179;-74
2022/11/10 10:46:57;;;;;;;0.40;0.40;;;14.90;99.90;14.70;102203.00;;;;5049103;28;20536;-74
2022/11/10 10:49:29;;;;;;;0.20;0.20;;;14.90;99.90;14.80;102184.00;;;;5033177;28;20211;-74
2022/11/10 10:52:25;;;;;;;0.20;0.20;;;14.50;99.90;15.50;102174.00;;;;5045277;28;20233;-75
2022/11/10 10:55:06;;;;;;;0.20;0.20;;;14.90;99.90;14.70;102188.00;;;;5016754;28;20214;-76
2022/11/10 10:57:32;;;;;;;0.20;0.20;;;14.80;99.90;16.00;102177.00;;;;5046291;28;20271;-74
2022/11/10 11:00:22;;;;;;;0.40;0.40;;;15.10;99.90;15.60;102159.00;;;;5032128;28;20323;-78
2022/11/10 11:03:29;;;;;;;0.20;0.20;;;15.40;99.90;15.20;102187.00;;;;5047776;28;20554;-81
2022/11/10 11:06:18;;;;;;;0.20;0.20;;;15.10;99.90;15.90;102207.00;;;;5037177;28;20178;-81
2022/11/10 11:09:03;;;;;;;0.20;0.20;;;15.50;99.90;15.40;102141.00;;;;5045416;28;20211;-82
2022/11/10 11:11:41;;;;;;;0.30;0.30;;;15.30;99.90;15.70;102190.00;;;;5048543;28;20209;-81
2022/11/10 11:14:25;;;;;;;0.47;0.47;;;15.40;99.90;15.30;102186.00;;;;5064540;28;20654;-82
2022/11/10 11:17:12;;;;;;;0.20;0.20;;;15.30;99.90;15.30;102185.00;;;;5044621;28;20187;-81
2022/11/10 11:19:41;;;;;;;0.10;0.10;;;15.10;99.90;16.10;102201.00;;;;5031843;28;20541;-78
2022/11/10 11:22:40;;;;;;;0.20;0.20;;;15.40;99.90;17.20;102216.00;;;;5081367;28;20595;-78
2022/11/10 11:25:20;;;;;;;9.57;1.63;;;16.20;99.90;16.10;102226.00;;;;5034157;28;20265;-78
2022/11/10 11:28:04;;;;;;;0.40;0.40;;;15.80;99.90;15.30;102224.00;;;;5045592;28;20202;-79
2022/11/10 11:30:53;;;;;;;0.20;0.20;;;15.50;99.90;16.50;102234.00;;;;5057273;28;20653;-79
2022/11/10 11:34:00;;;;;;;0.30;0.30;;;15.60;99.90;15.60;102232.00;;;;5046481;28;20226;-79
2022/11/10 11:37:15;;;;;;;0.43;0.43;;;15.50;99.90;15.50;102236.00;;;;5049081;28;20189;-79
2022/11/10 11:40:22;;;;;;;1.60;0.40;;;15.60;99.90;16.30;102217.00;;;;5047789;28;20216;-79
2022/11/10 11:43:29;;;;;;;1.33;0.40;;;15.70;99.90;15.90;102241.00;;;;5013440;28;20204;-80
2022/11/10 11:46:23;;;;;;;0.20;0.20;;;15.50;99.90;15.70;102228.00;;;;4994010;28;20213;-78
2022/11/10 11:49:20;;;;;;;0.57;0.57;;;15.50;99.90;15.60;102234.00;;;;5037094;28;20190;-79
2022/11/10 11:52:23;;;;;;;0.13;0.13;;;15.30;99.90;17.40;102268.00;;;;5034168;28;20215;-79
2022/11/10 11:55:13;;;;;;;0.20;0.20;;;16.00;99.90;16.00;102259.00;;;;5050828;28;20262;-79
2022/11/10 11:58:31;;;;;;;0.20;0.20;;;16.10;99.90;16.20;102250.00;;;;5031502;28;20189;-79
2022/11/10 12:01:12;;;;;;;0.20;0.20;;;15.80;99.90;16.40;102275.00;;;;5033889;28;20283;-79
2022/11/10 12:04:08;;;;;;;0.10;0.10;;;15.90;99.90;16.50;102278.00;;;;5035567;28;20644;-79
2022/11/10 12:07:20;;;;;;;5.70;0.80;;;15.90;99.90;16.60;102295.00;;;;5032846;28;20191;-80
2022/11/10 12:10:21;;;;;;;0.17;0.17;;;16.10;99.90;17.00;102287.00;;;;5034178;28;20209;-79
2022/11/10 12:13:09;;;;;;;0.13;0.13;;;16.10;99.90;17.30;102302.00;;;;5017700;28;20202;-80
2022/11/10 12:16:13;;;;;;;0.10;0.10;;;16.40;99.90;16.30;102269.00;;;;5046631;28;20199;-79